Time,TemperatureF,DewpointF,PressureIn,WindDirection,WindDirectionDegrees,WindSpeedMPH,WindSpeedGustMPH,Humidity,HourlyPrecipIn,Conditions,Clouds,dailyrainin,SoftwareType,DateUTC
2013-01-30 00:00:00,49.1,47.7,29.93,East,95,2.0,3.0,95,0.00,,,0.00,LWC V2.00 B2112,2013-01-30 05:00:00,
2013-01-30 00:05:00,48.8,47.4,29.93,East,99,1.0,2.0,95,0.00,,,0.00,LWC V2.00 B2112,2013-01-30 05:05:00,
2013-01-30 00:10:00,48.8,47.4,29.93,East,89,0.0,1.0,95,0.00,,,0.00,LWC V2.00 B2112,2013-01-30 05:10:00,
2013-01-30 00:15:00,48.8,47.4,29.93,East,89,2.0,2.0,95,0.00,,,0.00,LWC V2.00 B2112,2013-01-30 05:15:00,
2013-01-30 00:20:00,48.8,47.4,29.93,East,88,1.0,1.0,95,0.00,,,0.00,LWC V2.00 B2112,2013-01-30 05:20:00,
2013-01-30 00:25:00,48.6,47.5,29.93,East,89,0.0,0.0,96,0.00,,,0.00,LWC V2.00 B2112,2013-01-30 05:25:00,
2013-01-30 00:30:00,48.5,47.4,29.93,East,88,2.0,2.0,96,0.00,,,0.00,LWC V2.00 B2112,2013-01-30 05:30:00,
2013-01-30 00:35:00,48.5,47.4,29.93,East,96,2.0,2.0,96,0.00,,,0.00,LWC V2.00 B2112,2013-01-30 05:35:00,
2013-01-30 00:40:00,48.3,47.2,29.93,East,92,1.0,3.0,96,0.00,,,0.00,LWC V2.00 B2112,2013-01-30 05:40:00,
2013-01-30 00:45:00,48.3,47.2,29.92,East,90,1.0,2.0,96,0.00,,,0.00,LWC V2.00 B2112,2013-01-30 05:45:00,
2013-01-30 00:50:00,48.2,47.1,29.92,ENE,76,1.0,3.0,96,0.00,,,0.00,LWC V2.00 B2112,2013-01-30 05:50:00,
2013-01-30 00:55:00,48.2,47.1,29.92,ENE,73,1.0,3.0,96,0.00,,,0.00,LWC V2.00 B2112,2013-01-30 05:55:00,
2013-01-30 01:00:00,47.9,46.8,29.91,ENE,62,1.0,2.0,96,0.00,,,0.00,LWC V2.00 B2112,2013-01-30 06:00:00,
2013-01-30 01:05:00,47.6,46.5,29.91,ENE,66,1.0,2.0,96,0.00,,,0.00,LWC V2.00 B2112,2013-01-30 06:05:00,
2013-01-30 01:10:00,47.4,46.6,29.91,East,80,2.0,2.0,97,0.00,,,0.00,LWC V2.00 B2112,2013-01-30 06:10:00,
2013-01-30 01:15:00,47.3,46.5,29.91,East,80,2.0,2.0,97,0.00,,,0.00,LWC V2.00 B2112,2013-01-30 06:15:00,
2013-01-30 01:20:00,47.1,46.3,29.91,ENE,75,1.0,3.0,97,0.00,,,0.00,LWC V2.00 B2112,2013-01-30 06:20:00,
2013-01-30 01:25:00,47.1,46.3,29.91,East,79,1.0,3.0,97,0.00,,,0.00,LWC V2.00 B2112,2013-01-30 06:25:00,
2013-01-30 01:30:00,47.1,46.3,29.90,East,80,1.0,2.0,97,0.00,,,0.00,LWC V2.00 B2112,2013-01-30 06:30:00,
2013-01-30 01:35:00,47.1,46.3,29.90,East,80,2.0,2.0,97,0.00,,,0.00,LWC V2.00 B2112,2013-01-30 06:35:00,
2013-01-30 01:40:00,47.1,46.3,29.90,NE,52,2.0,3.0,97,0.00,,,0.00,LWC V2.00 B2112,2013-01-30 06:40:00,
2013-01-30 01:45:00,47.0,46.2,29.89,East,79,1.0,3.0,97,0.00,,,0.00,LWC V2.00 B2112,2013-01-30 06:45:00,
2013-01-30 01:50:00,46.7,45.9,29.89,NE,51,1.0,3.0,97,0.00,,,0.00,LWC V2.00 B2112,2013-01-30 06:50:00,
2013-01-30 01:55:00,46.4,45.9,29.89,ENE,71,2.0,3.0,98,0.00,,,0.00,LWC V2.00 B2112,2013-01-30 06:55:00,
2013-01-30 02:00:00,46.4,45.9,29.88,ENE,75,1.0,2.0,98,0.00,,,0.00,LWC V2.00 B2112,2013-01-30 07:00:00,
2013-01-30 02:05:00,46.2,45.7,29.88,ENE,68,2.0,2.0,98,0.00,,,0.00,LWC V2.00 B2112,2013-01-30 07:05:00,
2013-01-30 02:10:00,46.2,45.7,29.88,ENE,62,1.0,2.0,98,0.00,,,0.00,LWC V2.00 B2112,2013-01-30 07:10:00,
2013-01-30 02:15:00,46.1,45.6,29.87,ENE,65,1.0,2.0,98,0.00,,,0.00,LWC V2.00 B2112,2013-01-30 07:15:00,
2013-01-30 02:20:00,46.1,45.6,29.87,ENE,66,0.0,2.0,98,0.00,,,0.00,LWC V2.00 B2112,2013-01-30 07:20:00,
2013-01-30 02:25:00,46.2,45.9,29.87,ENE,68,1.0,2.0,99,0.00,,,0.00,LWC V2.00 B2112,2013-01-30 07:25:00,
2013-01-30 02:30:00,46.2,45.9,29.87,ENE,68,0.0,1.0,99,0.00,,,0.00,LWC V2.00 B2112,2013-01-30 07:30:00,
2013-01-30 02:35:00,46.2,45.9,29.87,ENE,68,1.0,2.0,99,0.00,,,0.00,LWC V2.00 B2112,2013-01-30 07:35:00,
2013-01-30 02:40:00,46.2,45.9,29.87,ENE,68,1.0,2.0,99,0.00,,,0.00,LWC V2.00 B2112,2013-01-30 07:40:00,
2013-01-30 02:45:00,46.2,45.9,29.87,ENE,68,0.0,1.0,99,0.00,,,0.00,LWC V2.00 B2112,2013-01-30 07:45:00,
2013-01-30 02:50:00,46.2,45.9,29.87,ENE,68,1.0,2.0,99,0.00,,,0.00,LWC V2.00 B2112,2013-01-30 07:50:00,
2013-01-30 02:55:00,46.2,45.9,29.87,ENE,68,1.0,2.0,99,0.00,,,0.00,LWC V2.00 B2112,2013-01-30 07:55:00,
2013-01-30 03:00:00,46.2,45.9,29.86,ENE,71,1.0,2.0,99,0.00,,,0.00,LWC V2.00 B2112,2013-01-30 08:00:00,
2013-01-30 03:05:00,46.4,46.1,29.86,ENE,71,1.0,2.0,99,0.00,,,0.00,LWC V2.00 B2112,2013-01-30 08:05:00,
2013-01-30 03:10:00,46.8,46.8,29.86,ENE,66,1.0,2.0,100,0.00,,,0.00,LWC V2.00 B2112,2013-01-30 08:10:00,
2013-01-30 03:15:00,46.7,46.4,29.85,NE,37,3.0,3.0,99,0.00,,,0.00,LWC V2.00 B2112,2013-01-30 08:15:00,
2013-01-30 03:20:00,46.7,46.4,29.85,East,85,2.0,2.0,99,0.00,,,0.00,LWC V2.00 B2112,2013-01-30 08:20:00,
2013-01-30 03:25:00,46.5,46.2,29.85,ENE,76,0.0,5.0,99,0.00,,,0.00,LWC V2.00 B2112,2013-01-30 08:25:00,
2013-01-30 03:30:00,46.2,45.9,29.83,ENE,72,1.0,3.0,99,0.00,,,0.00,LWC V2.00 B2112,2013-01-30 08:30:00,
2013-01-30 03:35:00,46.0,45.7,29.83,NE,56,2.0,3.0,99,0.00,,,0.00,LWC V2.00 B2112,2013-01-30 08:35:00,
2013-01-30 03:40:00,45.8,45.5,29.83,East,86,1.0,2.0,99,0.00,,,0.00,LWC V2.00 B2112,2013-01-30 08:40:00,
2013-01-30 03:45:00,45.8,45.5,29.84,NE,47,1.0,3.0,99,0.00,,,0.00,LWC V2.00 B2112,2013-01-30 08:45:00,
2013-01-30 03:50:00,45.8,45.5,29.84,NE,47,1.0,1.0,99,0.00,,,0.00,LWC V2.00 B2112,2013-01-30 08:50:00,
2013-01-30 03:55:00,46.0,45.7,29.84,NE,47,1.0,2.0,99,0.00,,,0.00,LWC V2.00 B2112,2013-01-30 08:55:00,
2013-01-30 04:00:00,46.1,46.1,29.83,NE,47,0.0,1.0,100,0.00,,,0.00,LWC V2.00 B2112,2013-01-30 09:00:00,
2013-01-30 04:05:00,46.2,46.2,29.83,NE,47,1.0,2.0,100,0.00,,,0.00,LWC V2.00 B2112,2013-01-30 09:05:00,
2013-01-30 04:10:00,46.4,46.4,29.83,NE,47,1.0,2.0,100,0.00,,,0.00,LWC V2.00 B2112,2013-01-30 09:10:00,
2013-01-30 04:15:00,46.4,46.4,29.83,NE,47,2.0,2.0,100,0.00,,,0.00,LWC V2.00 B2112,2013-01-30 09:15:00,
2013-01-30 04:20:00,46.5,46.5,29.83,NE,47,1.0,1.0,100,0.00,,,0.00,LWC V2.00 B2112,2013-01-30 09:20:00,
2013-01-30 04:25:00,46.5,46.5,29.83,NE,47,1.0,2.0,100,0.00,,,0.00,LWC V2.00 B2112,2013-01-30 09:25:00,
2013-01-30 04:30:00,46.7,46.4,29.83,NE,55,1.0,2.0,99,0.00,,,0.00,LWC V2.00 B2112,2013-01-30 09:30:00,
2013-01-30 04:35:00,46.5,46.2,29.83,NE,55,1.0,2.0,99,0.00,,,0.00,LWC V2.00 B2112,2013-01-30 09:35:00,
2013-01-30 04:40:00,46.4,46.1,29.83,NE,55,1.0,2.0,99,0.00,,,0.00,LWC V2.00 B2112,2013-01-30 09:40:00,
2013-01-30 04:45:00,46.4,46.1,29.82,NE,55,1.0,2.0,99,0.00,,,0.00,LWC V2.00 B2112,2013-01-30 09:45:00,
2013-01-30 04:50:00,46.2,45.9,29.82,ENE,62,0.0,2.0,99,0.00,,,0.00,LWC V2.00 B2112,2013-01-30 09:50:00,
2013-01-30 04:55:00,46.1,45.8,29.82,ENE,62,0.0,2.0,99,0.00,,,0.00,LWC V2.00 B2112,2013-01-30 09:55:00,
2013-01-30 05:00:00,46.1,45.8,29.81,ENE,62,0.0,0.0,99,0.00,,,0.00,LWC V2.00 B2112,2013-01-30 10:00:00,
2013-01-30 05:05:00,46.0,45.7,29.81,ENE,62,0.0,0.0,99,0.00,,,0.00,LWC V2.00 B2112,2013-01-30 10:05:00,
2013-01-30 05:10:00,46.0,45.7,29.81,ENE,62,0.0,0.0,99,0.00,,,0.00,LWC V2.00 B2112,2013-01-30 10:10:00,
2013-01-30 05:15:00,46.1,45.8,29.81,ENE,62,0.0,0.0,99,0.00,,,0.00,LWC V2.00 B2112,2013-01-30 10:15:00,
2013-01-30 05:20:00,46.2,46.2,29.81,ENE,62,1.0,1.0,100,0.00,,,0.00,LWC V2.00 B2112,2013-01-30 10:20:00,
2013-01-30 05:25:00,46.4,46.4,29.81,ENE,62,1.0,2.0,100,0.00,,,0.00,LWC V2.00 B2112,2013-01-30 10:25:00,
2013-01-30 05:30:00,46.5,46.5,29.80,ENE,62,0.0,0.0,100,0.00,,,0.00,LWC V2.00 B2112,2013-01-30 10:30:00,
2013-01-30 05:35:00,46.7,46.7,29.80,NNE,28,2.0,2.0,100,0.00,,,0.00,LWC V2.00 B2112,2013-01-30 10:35:00,
2013-01-30 05:40:00,46.7,46.7,29.80,NNE,28,0.0,1.0,100,0.00,,,0.00,LWC V2.00 B2112,2013-01-30 10:40:00,
2013-01-30 05:45:00,46.8,46.8,29.80,East,82,1.0,2.0,100,0.00,,,0.00,LWC V2.00 B2112,2013-01-30 10:45:00,
2013-01-30 05:50:00,46.8,46.8,29.80,ENE,59,1.0,2.0,100,0.00,,,0.00,LWC V2.00 B2112,2013-01-30 10:50:00,
2013-01-30 05:55:00,46.8,46.8,29.80,East,80,1.0,3.0,100,0.00,,,0.00,LWC V2.00 B2112,2013-01-30 10:55:00,
2013-01-30 06:00:00,46.8,46.5,29.80,ENE,59,1.0,2.0,99,0.00,,,0.00,LWC V2.00 B2112,2013-01-30 11:00:00,
2013-01-30 06:05:00,46.7,46.4,29.80,ENE,59,0.0,0.0,99,0.00,,,0.00,LWC V2.00 B2112,2013-01-30 11:05:00,
2013-01-30 06:10:00,46.7,46.4,29.80,ENE,59,0.0,2.0,99,0.00,,,0.00,LWC V2.00 B2112,2013-01-30 11:10:00,
2013-01-30 06:15:00,46.7,46.4,29.79,ENE,66,1.0,2.0,99,0.00,,,0.00,LWC V2.00 B2112,2013-01-30 11:15:00,
2013-01-30 06:20:00,46.7,46.4,29.79,East,88,1.0,1.0,99,0.00,,,0.00,LWC V2.00 B2112,2013-01-30 11:20:00,
2013-01-30 06:25:00,46.7,46.7,29.79,ENE,68,3.0,5.0,100,0.00,,,0.00,LWC V2.00 B2112,2013-01-30 11:25:00,
2013-01-30 06:30:00,46.8,46.8,29.77,East,97,3.0,3.0,100,0.00,,,0.00,LWC V2.00 B2112,2013-01-30 11:30:00,
2013-01-30 06:35:00,46.8,46.8,29.77,East,88,1.0,2.0,100,0.00,,,0.00,LWC V2.00 B2112,2013-01-30 11:35:00,
2013-01-30 06:40:00,46.8,46.8,29.77,ESE,113,2.0,2.0,100,0.00,,,0.00,LWC V2.00 B2112,2013-01-30 11:40:00,
2013-01-30 06:45:00,46.8,46.8,29.77,ESE,113,1.0,1.0,100,0.00,,,0.00,LWC V2.00 B2112,2013-01-30 11:45:00,
2013-01-30 06:50:00,46.8,46.8,29.77,ESE,113,0.0,0.0,100,0.00,,,0.00,LWC V2.00 B2112,2013-01-30 11:50:00,
2013-01-30 06:55:00,46.8,46.8,29.77,ESE,113,0.0,0.0,100,0.00,,,0.00,LWC V2.00 B2112,2013-01-30 11:55:00,
2013-01-30 07:00:00,46.7,46.7,29.77,NNW,346,2.0,2.0,100,0.00,,,0.00,LWC V2.00 B2112,2013-01-30 12:00:00,
2013-01-30 07:05:00,46.4,46.4,29.77,NW,319,0.0,1.0,100,0.00,,,0.00,LWC V2.00 B2112,2013-01-30 12:05:00,
2013-01-30 07:10:00,46.1,46.1,29.77,NW,319,2.0,2.0,100,0.00,,,0.00,LWC V2.00 B2112,2013-01-30 12:10:00,
2013-01-30 07:15:00,45.7,45.4,29.78,NW,304,0.0,2.0,99,0.00,,,0.00,LWC V2.00 B2112,2013-01-30 12:15:00,
2013-01-30 07:20:00,45.8,45.8,29.78,WNW,289,0.0,1.0,100,0.00,,,0.00,LWC V2.00 B2112,2013-01-30 12:20:00,
2013-01-30 07:25:00,45.8,45.8,29.78,WNW,289,0.0,0.0,100,0.00,,,0.00,LWC V2.00 B2112,2013-01-30 12:25:00,
2013-01-30 07:30:00,45.8,45.8,29.77,WNW,289,0.0,0.0,100,0.00,,,0.00,LWC V2.00 B2112,2013-01-30 12:30:00,
2013-01-30 07:35:00,46.0,46.0,29.77,WNW,289,0.0,0.0,100,0.00,,,0.00,LWC V2.00 B2112,2013-01-30 12:35:00,
2013-01-30 07:40:00,46.0,46.0,29.77,WNW,289,0.0,0.0,100,0.00,,,0.00,LWC V2.00 B2112,2013-01-30 12:40:00,
2013-01-30 07:45:00,46.2,46.2,29.78,WNW,289,0.0,0.0,100,0.00,,,0.00,LWC V2.00 B2112,2013-01-30 12:45:00,
2013-01-30 07:50:00,46.7,46.7,29.78,WNW,289,1.0,2.0,100,0.00,,,0.00,LWC V2.00 B2112,2013-01-30 12:50:00,
2013-01-30 07:55:00,47.4,47.4,29.78,SSW,199,1.0,2.0,100,0.00,,,0.00,LWC V2.00 B2112,2013-01-30 12:55:00,
2013-01-30 08:00:00,48.0,48.0,29.77,SE,137,1.0,1.0,100,0.00,,,0.00,LWC V2.00 B2112,2013-01-30 13:00:00,
2013-01-30 08:05:00,48.9,48.9,29.77,ESE,102,2.0,3.0,100,0.00,,,0.00,LWC V2.00 B2112,2013-01-30 13:05:00,
2013-01-30 08:10:00,49.5,49.5,29.77,East,92,0.0,3.0,100,0.00,,,0.00,LWC V2.00 B2112,2013-01-30 13:10:00,
2013-01-30 08:15:00,49.8,49.8,29.76,ENE,62,1.0,3.0,100,0.00,,,0.00,LWC V2.00 B2112,2013-01-30 13:15:00,
2013-01-30 08:20:00,49.8,49.8,29.76,East,86,1.0,3.0,100,0.00,,,0.00,LWC V2.00 B2112,2013-01-30 13:20:00,
2013-01-30 08:25:00,49.8,49.8,29.76,East,88,2.0,2.0,100,0.00,,,0.00,LWC V2.00 B2112,2013-01-30 13:25:00,
2013-01-30 08:30:00,49.9,49.9,29.75,ESE,102,2.0,2.0,100,0.00,,,0.00,LWC V2.00 B2112,2013-01-30 13:30:00,
2013-01-30 08:35:00,49.9,49.9,29.75,East,100,0.0,0.0,100,0.00,,,0.00,LWC V2.00 B2112,2013-01-30 13:35:00,
2013-01-30 08:40:00,50.1,50.1,29.75,East,100,1.0,2.0,100,0.00,,,0.00,LWC V2.00 B2112,2013-01-30 13:40:00,
2013-01-30 08:45:00,50.4,50.4,29.74,East,89,1.0,2.0,100,0.00,,,0.00,LWC V2.00 B2112,2013-01-30 13:45:00,
2013-01-30 08:50:00,50.8,50.8,29.74,East,92,2.0,4.0,100,0.00,,,0.00,LWC V2.00 B2112,2013-01-30 13:50:00,
2013-01-30 08:55:00,51.4,51.4,29.74,East,88,4.0,6.0,100,0.00,,,0.00,LWC V2.00 B2112,2013-01-30 13:55:00,
2013-01-30 09:00:00,51.7,51.7,29.73,ESE,120,4.0,6.0,100,0.00,,,0.00,LWC V2.00 B2112,2013-01-30 14:00:00,
2013-01-30 09:05:00,51.7,51.7,29.73,East,93,5.0,5.0,100,0.00,,,0.00,LWC V2.00 B2112,2013-01-30 14:05:00,
2013-01-30 09:10:00,52.2,52.2,29.73,ESE,119,5.0,5.0,100,0.00,,,0.00,LWC V2.00 B2112,2013-01-30 14:10:00,
2013-01-30 09:15:00,52.3,52.3,29.73,East,100,4.0,5.0,100,0.00,,,0.00,LWC V2.00 B2112,2013-01-30 14:15:00,
2013-01-30 09:20:00,52.3,52.3,29.73,ENE,73,3.0,3.0,100,0.00,,,0.00,LWC V2.00 B2112,2013-01-30 14:20:00,
2013-01-30 09:25:00,52.6,52.6,29.73,ENE,71,2.0,2.0,100,0.00,,,0.00,LWC V2.00 B2112,2013-01-30 14:25:00,
2013-01-30 09:30:00,52.9,52.9,29.73,ENE,75,1.0,2.0,100,0.00,,,0.00,LWC V2.00 B2112,2013-01-30 14:30:00,
2013-01-30 09:35:00,53.5,53.5,29.73,East,92,4.0,6.0,100,0.00,,,0.00,LWC V2.00 B2112,2013-01-30 14:35:00,
2013-01-30 09:40:00,53.6,53.6,29.73,East,79,1.0,2.0,100,0.00,,,0.00,LWC V2.00 B2112,2013-01-30 14:40:00,
2013-01-30 09:45:00,53.8,53.8,29.72,East,93,1.0,3.0,100,0.00,,,0.00,LWC V2.00 B2112,2013-01-30 14:45:00,
2013-01-30 09:50:00,53.6,53.3,29.72,East,85,1.0,5.0,99,0.00,,,0.00,LWC V2.00 B2112,2013-01-30 14:50:00,
2013-01-30 09:55:00,53.3,52.7,29.72,ESE,103,2.0,2.0,98,0.00,,,0.00,LWC V2.00 B2112,2013-01-30 14:55:00,
2013-01-30 10:00:00,53.3,52.7,29.72,ENE,72,3.0,3.0,98,0.00,,,0.00,LWC V2.00 B2112,2013-01-30 15:00:00,
2013-01-30 10:05:00,53.6,53.0,29.72,East,83,1.0,3.0,98,0.00,,,0.00,LWC V2.00 B2112,2013-01-30 15:05:00,
2013-01-30 10:10:00,54.2,53.6,29.72,ENE,64,1.0,2.0,98,0.00,,,0.00,LWC V2.00 B2112,2013-01-30 15:10:00,
2013-01-30 10:15:00,55.0,54.4,29.70,ENE,59,3.0,3.0,98,0.00,,,0.00,LWC V2.00 B2112,2013-01-30 15:15:00,
2013-01-30 10:20:00,55.9,55.3,29.70,East,96,2.0,3.0,98,0.00,,,0.00,LWC V2.00 B2112,2013-01-30 15:20:00,
2013-01-30 10:25:00,57.3,56.7,29.70,ESE,120,3.0,3.0,98,0.00,,,0.00,LWC V2.00 B2112,2013-01-30 15:25:00,
2013-01-30 10:30:00,58.9,58.0,29.68,South,191,2.0,7.0,97,0.00,,,0.00,LWC V2.00 B2112,2013-01-30 15:30:00,
2013-01-30 10:35:00,60.7,59.5,29.68,SSE,152,1.0,6.0,96,0.00,,,0.00,LWC V2.00 B2112,2013-01-30 15:35:00,
2013-01-30 10:40:00,62.9,61.4,29.68,SSW,208,3.0,12.0,95,0.00,,,0.00,LWC V2.00 B2112,2013-01-30 15:40:00,
2013-01-30 10:45:00,65.3,62.0,29.68,SSW,209,3.0,12.0,89,0.00,,,0.00,LWC V2.00 B2112,2013-01-30 15:45:00,
2013-01-30 10:50:00,66.4,61.7,29.68,SSW,213,10.0,18.0,85,0.00,,,0.00,LWC V2.00 B2112,2013-01-30 15:50:00,
2013-01-30 10:55:00,67.1,61.8,29.68,SSW,213,4.0,14.0,83,0.00,,,0.00,LWC V2.00 B2112,2013-01-30 15:55:00,
2013-01-30 11:00:00,67.3,61.6,29.68,SSW,195,12.0,16.0,82,0.00,,,0.00,LWC V2.00 B2112,2013-01-30 16:00:00,
2013-01-30 11:05:00,67.6,61.6,29.68,SSW,210,17.0,17.0,81,0.00,,,0.00,LWC V2.00 B2112,2013-01-30 16:05:00,
2013-01-30 11:11:00,67.9,61.8,29.68,SSW,212,5.0,20.0,81,0.00,,,0.00,LWC V2.00 B2112,2013-01-30 16:11:00,
2013-01-30 11:16:00,67.9,61.8,29.67,SW,223,14.0,17.0,81,0.00,,,0.00,LWC V2.00 B2112,2013-01-30 16:16:00,
2013-01-30 11:21:00,67.9,61.8,29.67,SW,217,5.0,11.0,81,0.00,,,0.00,LWC V2.00 B2112,2013-01-30 16:21:00,
2013-01-30 11:26:00,67.8,61.7,29.67,SSW,212,5.0,17.0,81,0.00,,,0.00,LWC V2.00 B2112,2013-01-30 16:26:00,
2013-01-30 11:31:00,67.8,61.7,29.66,WSW,237,5.0,13.0,81,0.00,,,0.00,LWC V2.00 B2112,2013-01-30 16:31:00,
2013-01-30 11:36:00,67.8,61.7,29.66,SW,223,3.0,7.0,81,0.00,,,0.00,LWC V2.00 B2112,2013-01-30 16:36:00,
2013-01-30 11:41:00,67.9,61.8,29.66,WSW,256,5.0,19.0,81,0.00,,,0.00,LWC V2.00 B2112,2013-01-30 16:41:00,
2013-01-30 11:46:00,67.9,61.8,29.64,South,182,2.0,11.0,81,0.00,,,0.00,LWC V2.00 B2112,2013-01-30 16:46:00,
2013-01-30 11:51:00,67.9,62.2,29.64,SW,224,12.0,12.0,82,0.00,,,0.00,LWC V2.00 B2112,2013-01-30 16:51:00,
2013-01-30 11:56:00,67.9,61.8,29.64,SW,232,3.0,13.0,81,0.00,,,0.00,LWC V2.00 B2112,2013-01-30 16:56:00,
2013-01-30 12:01:00,67.9,62.2,29.63,SSE,150,2.0,8.0,82,0.00,,,0.00,LWC V2.00 B2112,2013-01-30 17:01:00,
2013-01-30 12:06:00,67.9,62.2,29.63,SSE,152,11.0,11.0,82,0.00,,,0.00,LWC V2.00 B2112,2013-01-30 17:06:00,
2013-01-30 12:11:00,68.1,62.4,29.63,WSW,239,12.0,12.0,82,0.00,,,0.00,LWC V2.00 B2112,2013-01-30 17:11:00,
2013-01-30 12:16:00,68.3,62.2,29.61,ESE,120,8.0,8.0,81,0.00,,,0.00,LWC V2.00 B2112,2013-01-30 17:16:00,
2013-01-30 12:21:00,68.4,62.3,29.61,South,181,7.0,8.0,81,0.00,,,0.00,LWC V2.00 B2112,2013-01-30 17:21:00,
2013-01-30 12:26:00,68.6,62.2,29.61,SSW,205,7.0,10.0,80,0.00,,,0.00,LWC V2.00 B2112,2013-01-30 17:26:00,
2013-01-30 12:31:00,68.6,62.5,29.60,SE,127,2.0,19.0,81,0.00,,,0.00,LWC V2.00 B2112,2013-01-30 17:31:00,
2013-01-30 12:36:00,68.6,62.2,29.60,SSE,147,7.0,11.0,80,0.00,,,0.00,LWC V2.00 B2112,2013-01-30 17:36:00,
2013-01-30 12:41:00,68.6,62.5,29.60,South,181,6.0,7.0,81,0.00,,,0.00,LWC V2.00 B2112,2013-01-30 17:41:00,
2013-01-30 12:46:00,68.4,62.3,29.60,South,189,12.0,12.0,81,0.00,,,0.00,LWC V2.00 B2112,2013-01-30 17:46:00,
2013-01-30 12:51:00,68.6,62.5,29.60,SW,233,4.0,17.0,81,0.00,,,0.00,LWC V2.00 B2112,2013-01-30 17:51:00,
2013-01-30 12:56:00,68.6,62.5,29.60,SSW,199,3.0,6.0,81,0.00,,,0.00,LWC V2.00 B2112,2013-01-30 17:56:00,
2013-01-30 13:01:00,68.6,62.5,29.58,SSW,198,14.0,14.0,81,0.00,,,0.00,LWC V2.00 B2112,2013-01-30 18:01:00,
2013-01-30 13:06:00,68.6,62.5,29.58,SSE,154,7.0,10.0,81,0.00,,,0.00,LWC V2.00 B2112,2013-01-30 18:06:00,
2013-01-30 13:11:00,68.6,62.5,29.58,SSW,212,11.0,17.0,81,0.00,,,0.00,LWC V2.00 B2112,2013-01-30 18:11:00,
2013-01-30 13:16:00,68.6,62.5,29.57,South,169,6.0,21.0,81,0.00,,,0.00,LWC V2.00 B2112,2013-01-30 18:16:00,
2013-01-30 13:21:00,68.8,62.7,29.57,SW,217,6.0,17.0,81,0.00,,,0.00,LWC V2.00 B2112,2013-01-30 18:21:00,
2013-01-30 13:26:00,68.8,62.7,29.57,SSE,168,8.0,8.0,81,0.00,,,0.00,LWC V2.00 B2112,2013-01-30 18:26:00,
2013-01-30 13:31:00,68.8,62.7,29.57,SSE,157,1.0,10.0,81,0.00,,,0.00,LWC V2.00 B2112,2013-01-30 18:31:00,
2013-01-30 13:36:00,68.8,62.7,29.57,SW,233,5.0,9.0,81,0.00,,,0.00,LWC V2.00 B2112,2013-01-30 18:36:00,
2013-01-30 13:41:00,68.9,62.8,29.57,SSE,154,10.0,16.0,81,0.00,,,0.00,LWC V2.00 B2112,2013-01-30 18:41:00,
2013-01-30 13:46:00,69.1,63.0,29.56,SSE,151,8.0,17.0,81,0.00,,,0.00,LWC V2.00 B2112,2013-01-30 18:46:00,
2013-01-30 13:51:00,69.1,62.7,29.56,SW,219,6.0,14.0,80,0.00,,,0.00,LWC V2.00 B2112,2013-01-30 18:51:00,
2013-01-30 13:56:00,69.1,62.7,29.56,WSW,239,11.0,14.0,80,0.00,,,0.00,LWC V2.00 B2112,2013-01-30 18:56:00,
2013-01-30 14:01:00,69.1,62.7,29.55,South,185,19.0,19.0,80,0.00,,,0.00,LWC V2.00 B2112,2013-01-30 19:01:00,
2013-01-30 14:06:00,69.4,63.0,29.55,South,188,8.0,12.0,80,0.00,,,0.00,LWC V2.00 B2112,2013-01-30 19:06:00,
2013-01-30 14:11:00,70.1,63.3,29.55,SSW,210,2.0,10.0,79,0.00,,,0.00,LWC V2.00 B2112,2013-01-30 19:11:00,
2013-01-30 14:16:00,70.8,63.2,29.54,ESE,102,5.0,16.0,77,0.00,,,0.00,LWC V2.00 B2112,2013-01-30 19:16:00,
2013-01-30 14:21:00,70.8,63.2,29.54,ESE,110,6.0,11.0,77,0.00,,,0.00,LWC V2.00 B2112,2013-01-30 19:21:00,
2013-01-30 14:26:00,70.6,63.0,29.54,SW,216,5.0,13.0,77,0.00,,,0.00,LWC V2.00 B2112,2013-01-30 19:26:00,
2013-01-30 14:31:00,70.6,63.0,29.54,SE,133,3.0,10.0,77,0.00,,,0.00,LWC V2.00 B2112,2013-01-30 19:31:00,
2013-01-30 14:36:00,70.4,62.8,29.54,SSW,198,6.0,10.0,77,0.00,,,0.00,LWC V2.00 B2112,2013-01-30 19:36:00,
2013-01-30 14:41:00,70.3,63.1,29.54,SSE,168,2.0,6.0,78,0.00,,,0.00,LWC V2.00 B2112,2013-01-30 19:41:00,
2013-01-30 14:46:00,70.3,63.1,29.54,SSW,209,10.0,12.0,78,0.00,,,0.00,LWC V2.00 B2112,2013-01-30 19:46:00,
2013-01-30 14:51:00,70.1,62.9,29.54,SSE,152,4.0,19.0,78,0.00,,,0.00,LWC V2.00 B2112,2013-01-30 19:51:00,
2013-01-30 14:56:00,70.1,62.9,29.54,SSE,155,2.0,13.0,78,0.00,,,0.00,LWC V2.00 B2112,2013-01-30 19:56:00,
2013-01-30 15:01:00,70.1,62.9,29.54,SSW,192,6.0,10.0,78,0.00,,,0.00,LWC V2.00 B2112,2013-01-30 20:01:00,
2013-01-30 15:06:00,70.3,63.1,29.54,SSW,213,6.0,13.0,78,0.00,,,0.00,LWC V2.00 B2112,2013-01-30 20:06:00,
2013-01-30 15:11:00,70.1,62.5,29.54,WSW,254,3.0,6.0,77,0.00,,,0.00,LWC V2.00 B2112,2013-01-30 20:11:00,
2013-01-30 15:16:00,69.6,62.4,29.54,SW,229,2.0,7.0,78,0.00,,,0.00,LWC V2.00 B2112,2013-01-30 20:16:00,
2013-01-30 15:21:00,68.9,61.7,29.54,SSE,148,5.0,7.0,78,0.00,,,0.00,LWC V2.00 B2112,2013-01-30 20:21:00,
2013-01-30 15:26:00,68.3,61.5,29.54,SSE,165,6.0,7.0,79,0.00,,,0.00,LWC V2.00 B2112,2013-01-30 20:26:00,
2013-01-30 15:31:00,68.1,61.7,29.54,SE,127,2.0,7.0,80,0.00,,,0.00,LWC V2.00 B2112,2013-01-30 20:31:00,
2013-01-30 15:36:00,68.1,61.7,29.54,SSE,167,3.0,6.0,80,0.00,,,0.00,LWC V2.00 B2112,2013-01-30 20:36:00,
2013-01-30 15:41:00,68.1,61.7,29.54,South,188,0.0,6.0,80,0.00,,,0.00,LWC V2.00 B2112,2013-01-30 20:41:00,
2013-01-30 15:46:00,67.9,61.5,29.55,ESE,116,3.0,7.0,80,0.00,,,0.00,LWC V2.00 B2112,2013-01-30 20:46:00,
2013-01-30 15:51:00,68.3,62.6,29.55,NW,308,4.0,7.0,82,0.00,,,0.00,LWC V2.00 B2112,2013-01-30 20:51:00,
2013-01-30 15:56:00,67.1,58.9,29.55,WNW,282,17.0,19.0,75,0.00,,,0.00,LWC V2.00 B2112,2013-01-30 20:56:00,
2013-01-30 16:01:00,65.2,58.5,29.57,WNW,291,12.0,14.0,79,0.00,,,0.01,LWC V2.00 B2112,2013-01-30 21:01:00,
2013-01-30 16:06:00,65.2,58.5,29.57,WNW,291,12.0,12.0,79,0.00,,,0.01,LWC V2.00 B2112,2013-01-30 21:06:00,
2013-01-30 16:11:00,65.2,58.5,29.57,North,-999,-999.0,12.0,79,0.00,,,0.01,LWC V2.00 B2112,2013-01-30 21:11:00,
2013-01-30 16:16:00,-999.0,-99.9,29.57,North,-999,-999.0,0.0,-999,0.00,,,0.01,LWC V2.00 B2112,2013-01-30 21:16:00,
2013-01-30 16:21:00,-999.0,-99.9,29.57,North,-999,-999.0,0.0,-999,0.00,,,0.01,LWC V2.00 B2112,2013-01-30 21:21:00,
2013-01-30 16:26:00,-999.0,-99.9,29.57,North,-999,-999.0,0.0,-999,0.00,,,0.01,LWC V2.00 B2112,2013-01-30 21:26:00,
2013-01-30 16:29:00,-999.0,-99.9,29.57,North,-999,-999.0,0.0,-999,0.00,,,0.01,LWC V2.00 B2112,2013-01-30 21:29:00,
2013-01-30 16:34:00,-999.0,-99.9,29.57,North,-999,-999.0,0.0,-999,0.00,,,0.01,LWC V2.00 B2112,2013-01-30 21:34:00,
2013-01-30 16:39:00,-999.0,-99.9,29.57,North,-999,-999.0,0.0,-999,0.00,,,0.01,LWC V2.00 B2112,2013-01-30 21:39:00,
2013-01-30 16:44:00,-999.0,-99.9,29.57,North,-999,-999.0,0.0,-999,0.00,,,0.01,LWC V2.00 B2112,2013-01-30 21:44:00,
2013-01-30 16:49:00,-999.0,-99.9,29.56,North,-999,-999.0,0.0,-999,0.00,,,0.01,LWC V2.00 B2112,2013-01-30 21:49:00,
2013-01-30 16:54:00,-999.0,-99.9,29.56,North,-999,-999.0,0.0,-999,0.00,,,0.01,LWC V2.00 B2112,2013-01-30 21:54:00,
2013-01-30 16:59:00,-999.0,-99.9,29.56,North,-999,-999.0,0.0,-999,0.00,,,0.01,LWC V2.00 B2112,2013-01-30 21:59:00,
2013-01-30 17:04:00,-999.0,-99.9,29.56,North,-999,-999.0,0.0,-999,0.00,,,0.01,LWC V2.00 B2112,2013-01-30 22:04:00,
2013-01-30 17:09:00,-999.0,-99.9,29.56,North,-999,-999.0,0.0,-999,0.00,,,0.01,LWC V2.00 B2112,2013-01-30 22:09:00,
2013-01-30 17:14:00,-999.0,-99.9,29.56,North,-999,-999.0,0.0,-999,0.00,,,0.01,LWC V2.00 B2112,2013-01-30 22:14:00,
2013-01-30 17:19:00,-999.0,-99.9,29.56,North,-999,-999.0,0.0,-999,0.00,,,0.01,LWC V2.00 B2112,2013-01-30 22:19:00,
2013-01-30 17:24:00,-999.0,-99.9,29.56,North,-999,-999.0,0.0,-999,0.00,,,0.01,LWC V2.00 B2112,2013-01-30 22:24:00,
2013-01-30 17:29:00,-999.0,-99.9,29.56,North,-999,-999.0,0.0,-999,0.00,,,0.01,LWC V2.00 B2112,2013-01-30 22:29:00,
2013-01-30 17:34:00,-999.0,-99.9,29.54,North,-999,-999.0,0.0,-999,0.00,,,0.01,LWC V2.00 B2112,2013-01-30 22:34:00,
2013-01-30 17:39:00,-999.0,-99.9,29.54,North,-999,-999.0,0.0,-999,0.00,,,0.01,LWC V2.00 B2112,2013-01-30 22:39:00,
2013-01-30 17:44:00,-999.0,-99.9,29.54,North,-999,-999.0,0.0,-999,0.00,,,0.01,LWC V2.00 B2112,2013-01-30 22:44:00,
2013-01-30 17:49:00,-999.0,-99.9,29.53,North,-999,-999.0,0.0,-999,0.00,,,0.01,LWC V2.00 B2112,2013-01-30 22:49:00,
2013-01-30 17:54:00,-999.0,-99.9,29.53,North,-999,-999.0,0.0,-999,0.00,,,0.01,LWC V2.00 B2112,2013-01-30 22:54:00,
2013-01-30 17:59:00,-999.0,-99.9,29.53,North,-999,-999.0,0.0,-999,0.00,,,0.01,LWC V2.00 B2112,2013-01-30 22:59:00,
2013-01-30 18:04:00,-999.0,-99.9,29.51,North,-999,-999.0,0.0,-999,0.00,,,0.01,LWC V2.00 B2112,2013-01-30 23:04:00,
2013-01-30 18:09:00,-999.0,-99.9,29.51,North,-999,-999.0,0.0,-999,0.00,,,0.01,LWC V2.00 B2112,2013-01-30 23:09:00,
2013-01-30 18:14:00,-999.0,-99.9,29.51,North,-999,-999.0,0.0,-999,0.00,,,0.01,LWC V2.00 B2112,2013-01-30 23:14:00,
2013-01-30 18:19:00,-999.0,-99.9,29.51,North,-999,-999.0,0.0,-999,0.00,,,0.01,LWC V2.00 B2112,2013-01-30 23:19:00,
2013-01-30 18:24:00,-999.0,-99.9,29.51,North,-999,-999.0,0.0,-999,0.00,,,0.01,LWC V2.00 B2112,2013-01-30 23:24:00,
2013-01-30 18:29:00,58.1,-99.9,29.51,NE,34,1.0,3.0,-999,0.06,,,0.01,LWC V2.00 B2112,2013-01-30 23:29:00,
2013-01-30 18:34:00,58.1,-99.9,29.50,West,281,3.0,3.0,-999,0.00,,,0.01,LWC V2.00 B2112,2013-01-30 23:34:00,
2013-01-30 18:39:00,58.1,-99.9,29.50,ENE,59,2.0,2.0,-999,0.00,,,0.01,LWC V2.00 B2112,2013-01-30 23:39:00,
2013-01-30 18:44:00,58.0,-99.9,29.50,East,79,3.0,3.0,-999,0.00,,,0.01,LWC V2.00 B2112,2013-01-30 23:44:00,
2013-01-30 18:49:00,58.0,58.0,29.48,East,99,6.0,6.0,100,0.00,,,0.01,LWC V2.00 B2112,2013-01-30 23:49:00,
2013-01-30 18:54:00,58.0,58.0,29.48,East,99,6.0,6.0,100,0.00,,,0.01,LWC V2.00 B2112,2013-01-30 23:54:00,
2013-01-30 18:59:00,-999.0,-99.9,29.48,North,-999,-999.0,6.0,-999,0.00,,,0.01,LWC V2.00 B2112,2013-01-30 23:59:00,
2013-01-30 19:04:00,-999.0,-99.9,29.47,North,-999,-999.0,0.0,-999,0.00,,,0.01,LWC V2.00 B2112,2013-01-31 00:04:00,
2013-01-30 19:09:00,-999.0,-99.9,29.47,North,-999,-999.0,0.0,-999,0.00,,,0.01,LWC V2.00 B2112,2013-01-31 00:09:00,
2013-01-30 19:14:00,-999.0,-99.9,29.47,North,-999,-999.0,0.0,-999,0.00,,,0.01,LWC V2.00 B2112,2013-01-31 00:14:00,
2013-01-30 19:19:00,-999.0,-99.9,29.45,North,-999,-999.0,0.0,-999,0.00,,,0.01,LWC V2.00 B2112,2013-01-31 00:19:00,
2013-01-30 19:24:00,-999.0,-99.9,29.45,North,-999,-999.0,0.0,-999,0.00,,,0.01,LWC V2.00 B2112,2013-01-31 00:24:00,
2013-01-30 19:29:00,-999.0,-99.9,29.45,North,-999,-999.0,0.0,-999,0.00,,,0.01,LWC V2.00 B2112,2013-01-31 00:29:00,
2013-01-30 19:34:00,-999.0,-99.9,29.43,North,-999,-999.0,0.0,-999,0.00,,,0.01,LWC V2.00 B2112,2013-01-31 00:34:00,
2013-01-30 19:39:00,-999.0,-99.9,29.43,North,-999,-999.0,0.0,-999,0.00,,,0.01,LWC V2.00 B2112,2013-01-31 00:39:00,
2013-01-30 19:44:00,-999.0,-99.9,29.43,North,-999,-999.0,0.0,-999,0.00,,,0.01,LWC V2.00 B2112,2013-01-31 00:44:00,
2013-01-30 19:49:00,-999.0,-99.9,29.41,ESE,116,3.0,7.0,-999,0.00,,,0.01,LWC V2.00 B2112,2013-01-31 00:49:00,
2013-01-30 19:54:00,53.9,-99.9,29.41,ESE,110,5.0,7.0,-999,0.00,,,0.01,LWC V2.00 B2112,2013-01-31 00:54:00,
2013-01-30 19:59:00,53.9,53.6,29.41,NW,308,5.0,5.0,99,0.00,,,0.01,LWC V2.00 B2112,2013-01-31 00:59:00,
2013-01-30 20:04:00,53.9,53.6,29.43,NW,308,5.0,5.0,99,0.00,,,0.01,LWC V2.00 B2112,2013-01-31 01:04:00,
2013-01-30 20:09:00,53.9,53.6,29.43,NW,323,6.0,6.0,99,0.00,,,0.01,LWC V2.00 B2112,2013-01-31 01:09:00,
2013-01-30 20:14:00,53.9,53.6,29.43,NW,323,6.0,6.0,99,0.00,,,0.01,LWC V2.00 B2112,2013-01-31 01:14:00,
2013-01-30 20:19:00,-999.0,-99.9,29.45,North,-999,-999.0,0.0,-999,0.00,,,0.01,LWC V2.00 B2112,2013-01-31 01:19:00,
2013-01-30 20:24:00,-999.0,-99.9,29.45,North,-999,-999.0,0.0,-999,0.00,,,0.01,LWC V2.00 B2112,2013-01-31 01:24:00,
2013-01-30 20:29:00,-999.0,-99.9,29.45,North,-999,-999.0,0.0,-999,0.00,,,0.01,LWC V2.00 B2112,2013-01-31 01:29:00,
2013-01-30 20:34:00,-999.0,-99.9,29.44,North,-999,-999.0,0.0,-999,0.00,,,0.01,LWC V2.00 B2112,2013-01-31 01:34:00,
2013-01-30 20:39:00,-999.0,-99.9,29.44,North,-999,-999.0,0.0,-999,0.00,,,0.01,LWC V2.00 B2112,2013-01-31 01:39:00,
2013-01-30 20:44:00,-999.0,-99.9,29.44,North,-999,-999.0,0.0,-999,0.00,,,0.01,LWC V2.00 B2112,2013-01-31 01:44:00,
2013-01-30 20:49:00,-999.0,-99.9,29.43,North,-999,-999.0,0.0,-999,0.00,,,0.01,LWC V2.00 B2112,2013-01-31 01:49:00,
2013-01-30 20:54:00,-999.0,-99.9,29.43,North,-999,-999.0,0.0,-999,0.00,,,0.01,LWC V2.00 B2112,2013-01-31 01:54:00,
2013-01-30 20:59:00,-999.0,-99.9,29.43,North,-999,-999.0,0.0,-999,0.00,,,0.01,LWC V2.00 B2112,2013-01-31 01:59:00,
2013-01-30 21:04:00,-999.0,-99.9,29.45,North,-999,-999.0,0.0,-999,0.00,,,0.01,LWC V2.00 B2112,2013-01-31 02:04:00,
2013-01-30 21:09:00,-999.0,-99.9,29.45,North,-999,-999.0,0.0,-999,0.00,,,0.01,LWC V2.00 B2112,2013-01-31 02:09:00,
2013-01-30 21:14:00,-999.0,-99.9,29.45,North,-999,-999.0,0.0,-999,0.00,,,0.01,LWC V2.00 B2112,2013-01-31 02:14:00,
2013-01-30 21:19:00,-999.0,-99.9,29.40,North,-999,-999.0,0.0,-999,0.00,,,0.01,LWC V2.00 B2112,2013-01-31 02:19:00,
2013-01-30 21:24:00,-999.0,-99.9,29.40,North,-999,-999.0,0.0,-999,0.00,,,0.01,LWC V2.00 B2112,2013-01-31 02:24:00,
2013-01-30 21:29:00,-999.0,-99.9,29.40,North,-999,-999.0,0.0,-999,0.00,,,0.01,LWC V2.00 B2112,2013-01-31 02:29:00,
2013-01-30 21:34:00,-999.0,-99.9,29.39,North,-999,-999.0,0.0,-999,0.00,,,0.01,LWC V2.00 B2112,2013-01-31 02:34:00,
2013-01-30 21:39:00,-999.0,-99.9,29.39,North,-999,-999.0,0.0,-999,0.00,,,0.01,LWC V2.00 B2112,2013-01-31 02:39:00,
2013-01-30 21:44:00,-999.0,-99.9,29.39,North,-999,-999.0,0.0,-999,0.00,,,0.01,LWC V2.00 B2112,2013-01-31 02:44:00,
2013-01-30 21:49:00,-999.0,-99.9,29.38,North,-999,-999.0,0.0,-999,0.00,,,0.01,LWC V2.00 B2112,2013-01-31 02:49:00,
2013-01-30 21:54:00,-999.0,-99.9,29.38,North,-999,-999.0,0.0,-999,0.00,,,0.01,LWC V2.00 B2112,2013-01-31 02:54:00,
2013-01-30 21:59:00,-999.0,-99.9,29.38,North,-999,-999.0,0.0,-999,0.00,,,0.01,LWC V2.00 B2112,2013-01-31 02:59:00,
2013-01-30 22:04:00,-999.0,-99.9,29.36,North,-999,-999.0,0.0,-999,0.00,,,0.01,LWC V2.00 B2112,2013-01-31 03:04:00,
2013-01-30 22:09:00,-999.0,-99.9,29.36,North,-999,-999.0,0.0,-999,0.00,,,0.01,LWC V2.00 B2112,2013-01-31 03:09:00,
2013-01-30 22:14:00,-999.0,-99.9,29.36,North,-999,-999.0,0.0,-999,0.00,,,0.01,LWC V2.00 B2112,2013-01-31 03:14:00,
2013-01-30 22:19:00,-999.0,-99.9,29.34,North,-999,-999.0,0.0,-999,0.00,,,0.01,LWC V2.00 B2112,2013-01-31 03:19:00,
2013-01-30 22:24:00,-999.0,-99.9,29.34,North,-999,-999.0,0.0,-999,0.00,,,0.01,LWC V2.00 B2112,2013-01-31 03:24:00,
2013-01-30 22:29:00,-999.0,-99.9,29.34,North,-999,-999.0,0.0,-999,0.00,,,0.01,LWC V2.00 B2112,2013-01-31 03:29:00,
2013-01-30 22:34:00,-999.0,-99.9,29.34,North,-999,-999.0,0.0,-999,0.00,,,0.01,LWC V2.00 B2112,2013-01-31 03:34:00,
2013-01-30 22:39:00,-999.0,-99.9,29.34,North,-999,-999.0,0.0,-999,0.00,,,0.01,LWC V2.00 B2112,2013-01-31 03:39:00,
2013-01-30 22:44:00,-999.0,-99.9,29.34,North,-999,-999.0,0.0,-999,0.00,,,0.01,LWC V2.00 B2112,2013-01-31 03:44:00,
2013-01-30 22:49:00,-999.0,-99.9,29.29,North,-999,-999.0,0.0,-999,0.00,,,0.01,LWC V2.00 B2112,2013-01-31 03:49:00,
2013-01-30 22:54:00,-999.0,-99.9,29.29,North,-999,-999.0,0.0,-999,0.00,,,0.01,LWC V2.00 B2112,2013-01-31 03:54:00,
2013-01-30 22:59:00,-999.0,-99.9,29.29,North,-999,-999.0,0.0,-999,0.00,,,0.01,LWC V2.00 B2112,2013-01-31 03:59:00,
2013-01-30 23:04:00,-999.0,-99.9,29.27,North,-999,-999.0,0.0,-999,0.00,,,0.00,LWC V2.00 B2112,2013-01-31 04:04:00,
2013-01-30 23:09:00,-999.0,-99.9,29.27,North,-999,-999.0,0.0,-999,0.00,,,0.00,LWC V2.00 B2112,2013-01-31 04:09:00,
2013-01-30 23:14:00,-999.0,-99.9,29.27,North,-999,-999.0,0.0,-999,0.00,,,0.00,LWC V2.00 B2112,2013-01-31 04:14:00,
2013-01-30 23:19:00,-999.0,-99.9,29.25,North,-999,-999.0,0.0,-999,0.00,,,0.00,LWC V2.00 B2112,2013-01-31 04:19:00,
2013-01-30 23:24:00,-999.0,-99.9,29.25,North,-999,-999.0,0.0,-999,0.00,,,0.00,LWC V2.00 B2112,2013-01-31 04:24:00,
2013-01-30 23:29:00,-999.0,-99.9,29.25,North,-999,-999.0,0.0,-999,0.00,,,0.00,LWC V2.00 B2112,2013-01-31 04:29:00,
2013-01-30 23:34:00,-999.0,-99.9,29.23,North,-999,-999.0,0.0,-999,0.00,,,0.00,LWC V2.00 B2112,2013-01-31 04:34:00,
2013-01-30 23:39:00,-999.0,-99.9,29.23,North,-999,-999.0,0.0,-999,0.00,,,0.00,LWC V2.00 B2112,2013-01-31 04:39:00,
2013-01-30 23:44:00,-999.0,-99.9,29.23,North,-999,-999.0,0.0,-999,0.00,,,0.00,LWC V2.00 B2112,2013-01-31 04:44:00,
2013-01-30 23:49:00,-999.0,-99.9,29.21,North,-999,-999.0,0.0,-999,0.00,,,0.00,LWC V2.00 B2112,2013-01-31 04:49:00,
2013-01-30 23:54:00,-999.0,-99.9,29.21,North,-999,-999.0,0.0,-999,0.00,,,0.00,LWC V2.00 B2112,2013-01-31 04:54:00,
2013-01-30 23:59:00,-999.0,-99.9,29.21,North,-999,-999.0,0.0,-999,0.00,,,0.00,LWC V2.00 B2112,2013-01-31 04:59:00,